Terminal Aerodrome Forecast
Issued by NWS Burlington, VT

Home | Current Version | Previous Version | Text Only | Print | Product List | Glossary On
Versions: 1 2 3 4 5 6 7 8 9 10 11 12 13 14 15 16 17 18 19 20 21 22 23 24 25 26 27 28 29 30 31 32 33 34 35 36 37 38 39 40 41 42 43 44 45 46 47 48 49 50
114
FTUS41 KBTV 162323
TAFBTV
TAF
KBTV 162323Z 1700/1724 20009KT P6SM FEW120
     FM170500 19006KT P6SM VCSH BKN080
     FM170800 20005KT 4SM -SHRA BR BKN050
     FM172300 21007KT P6SM VCSH BKN035=

USA.gov is the U.S. government's official web portal to all federal, state and local government web resources and services.